sensor_id;sensor_type;location;lat;lon;timestamp;P1;durP1;ratioP1;P2;durP2;ratioP2
33987;SDS011;37428;53.580;-1.666;2023-12-14T00:00:51;6.18;;;1.45;;
33987;SDS011;37428;53.580;-1.666;2023-12-14T00:03:54;7.65;;;1.77;;
33987;SDS011;37428;53.580;-1.666;2023-12-14T00:06:56;7.38;;;1.25;;
33987;SDS011;37428;53.580;-1.666;2023-12-14T00:09:58;4.97;;;1.75;;
33987;SDS011;37428;53.580;-1.666;2023-12-14T00:13:00;5.05;;;1.80;;
33987;SDS011;37428;53.580;-1.666;2023-12-14T00:16:06;2.97;;;1.27;;
33987;SDS011;37428;53.580;-1.666;2023-12-14T00:19:09;5.03;;;1.45;;
33987;SDS011;37428;53.580;-1.666;2023-12-14T00:22:11;3.67;;;1.58;;
33987;SDS011;37428;53.580;-1.666;2023-12-14T00:25:14;5.75;;;1.23;;
33987;SDS011;37428;53.580;-1.666;2023-12-14T00:28:16;7.82;;;1.40;;
33987;SDS011;37428;53.580;-1.666;2023-12-14T00:31:19;6.10;;;1.33;;
33987;SDS011;37428;53.580;-1.666;2023-12-14T00:34:22;7.93;;;1.83;;
33987;SDS011;37428;53.580;-1.666;2023-12-14T00:37:24;4.68;;;1.75;;
33987;SDS011;37428;53.580;-1.666;2023-12-14T00:40:26;7.18;;;2.13;;
33987;SDS011;37428;53.580;-1.666;2023-12-14T00:43:28;8.15;;;1.98;;
33987;SDS011;37428;53.580;-1.666;2023-12-14T00:46:32;2.70;;;0.95;;
33987;SDS011;37428;53.580;-1.666;2023-12-14T00:49:36;6.70;;;1.48;;
33987;SDS011;37428;53.580;-1.666;2023-12-14T00:52:38;3.70;;;1.17;;
33987;SDS011;37428;53.580;-1.666;2023-12-14T00:58:42;3.22;;;1.00;;
33987;SDS011;37428;53.580;-1.666;2023-12-14T01:05:06;2.38;;;1.10;;
33987;SDS011;37428;53.580;-1.666;2023-12-14T01:08:14;4.15;;;1.25;;
33987;SDS011;37428;53.580;-1.666;2023-12-14T01:11:16;5.07;;;1.10;;
33987;SDS011;37428;53.580;-1.666;2023-12-14T01:14:19;2.58;;;1.48;;
33987;SDS011;37428;53.580;-1.666;2023-12-14T01:17:25;10.55;;;2.13;;
33987;SDS011;37428;53.580;-1.666;2023-12-14T01:20:29;5.47;;;1.80;;
33987;SDS011;37428;53.580;-1.666;2023-12-14T01:23:45;6.55;;;1.60;;
33987;SDS011;37428;53.580;-1.666;2023-12-14T01:27:17;3.83;;;1.42;;
33987;SDS011;37428;53.580;-1.666;2023-12-14T01:30:30;2.42;;;1.25;;
33987;SDS011;37428;53.580;-1.666;2023-12-14T01:37:34;3.30;;;1.70;;
33987;SDS011;37428;53.580;-1.666;2023-12-14T01:40:39;2.33;;;0.80;;
33987;SDS011;37428;53.580;-1.666;2023-12-14T01:43:43;2.30;;;1.05;;
33987;SDS011;37428;53.580;-1.666;2023-12-14T01:46:59;1.70;;;0.82;;
33987;SDS011;37428;53.580;-1.666;2023-12-14T01:50:19;4.55;;;1.35;;
33987;SDS011;37428;53.580;-1.666;2023-12-14T01:53:23;4.53;;;1.10;;
33987;SDS011;37428;53.580;-1.666;2023-12-14T01:56:25;1.73;;;1.00;;
33987;SDS011;37428;53.580;-1.666;2023-12-14T01:59:28;3.85;;;0.95;;
33987;SDS011;37428;53.580;-1.666;2023-12-14T02:02:30;3.25;;;1.20;;
33987;SDS011;37428;53.580;-1.666;2023-12-14T02:05:34;3.70;;;1.52;;
33987;SDS011;37428;53.580;-1.666;2023-12-14T02:12:03;2.33;;;0.80;;
33987;SDS011;37428;53.580;-1.666;2023-12-14T02:15:06;2.08;;;0.85;;
33987;SDS011;37428;53.580;-1.666;2023-12-14T02:18:40;4.25;;;1.25;;
33987;SDS011;37428;53.580;-1.666;2023-12-14T02:21:38;5.87;;;1.40;;
33987;SDS011;37428;53.580;-1.666;2023-12-14T02:27:59;2.72;;;1.13;;
33987;SDS011;37428;53.580;-1.666;2023-12-14T02:31:17;3.38;;;1.15;;
33987;SDS011;37428;53.580;-1.666;2023-12-14T02:34:20;4.57;;;1.20;;
33987;SDS011;37428;53.580;-1.666;2023-12-14T02:37:26;4.60;;;1.73;;
33987;SDS011;37428;53.580;-1.666;2023-12-14T02:44:13;3.78;;;1.30;;
33987;SDS011;37428;53.580;-1.666;2023-12-14T02:47:17;5.82;;;1.17;;
33987;SDS011;37428;53.580;-1.666;2023-12-14T02:50:21;2.70;;;0.60;;
33987;SDS011;37428;53.580;-1.666;2023-12-14T02:53:39;0.73;;;0.60;;
33987;SDS011;37428;53.580;-1.666;2023-12-14T02:56:41;3.25;;;0.75;;
33987;SDS011;37428;53.580;-1.666;2023-12-14T02:59:45;1.83;;;0.63;;
33987;SDS011;37428;53.580;-1.666;2023-12-14T03:03:26;3.35;;;0.77;;
33987;SDS011;37428;53.580;-1.666;2023-12-14T03:06:48;3.20;;;0.63;;
33987;SDS011;37428;53.580;-1.666;2023-12-14T03:09:45;3.33;;;0.55;;
33987;SDS011;37428;53.580;-1.666;2023-12-14T03:13:12;4.45;;;0.90;;
33987;SDS011;37428;53.580;-1.666;2023-12-14T03:16:19;1.98;;;0.73;;
33987;SDS011;37428;53.580;-1.666;2023-12-14T03:19:21;4.28;;;0.95;;
33987;SDS011;37428;53.580;-1.666;2023-12-14T03:22:49;2.55;;;1.08;;
33987;SDS011;37428;53.580;-1.666;2023-12-14T03:26:17;1.90;;;0.93;;
33987;SDS011;37428;53.580;-1.666;2023-12-14T03:29:28;2.72;;;0.80;;
33987;SDS011;37428;53.580;-1.666;2023-12-14T03:32:37;3.80;;;1.00;;
33987;SDS011;37428;53.580;-1.666;2023-12-14T03:35:39;4.60;;;1.25;;
33987;SDS011;37428;53.580;-1.666;2023-12-14T03:38:42;2.97;;;0.95;;
33987;SDS011;37428;53.580;-1.666;2023-12-14T03:41:44;2.85;;;0.82;;
33987;SDS011;37428;53.580;-1.666;2023-12-14T03:44:47;5.68;;;0.98;;
33987;SDS011;37428;53.580;-1.666;2023-12-14T03:47:50;3.42;;;1.02;;
33987;SDS011;37428;53.580;-1.666;2023-12-14T03:50:53;2.75;;;0.90;;
33987;SDS011;37428;53.580;-1.666;2023-12-14T03:53:55;2.90;;;1.00;;
33987;SDS011;37428;53.580;-1.666;2023-12-14T03:56:57;4.40;;;1.42;;
33987;SDS011;37428;53.580;-1.666;2023-12-14T03:59:59;3.40;;;1.23;;
33987;SDS011;37428;53.580;-1.666;2023-12-14T04:03:03;3.35;;;1.02;;
33987;SDS011;37428;53.580;-1.666;2023-12-14T04:06:06;4.18;;;1.30;;
33987;SDS011;37428;53.580;-1.666;2023-12-14T04:12:11;7.28;;;2.83;;
33987;SDS011;37428;53.580;-1.666;2023-12-14T04:15:14;3.13;;;0.90;;
33987;SDS011;37428;53.580;-1.666;2023-12-14T04:18:17;3.83;;;1.20;;
33987;SDS011;37428;53.580;-1.666;2023-12-14T04:21:19;2.00;;;0.88;;
33987;SDS011;37428;53.580;-1.666;2023-12-14T04:24:22;4.47;;;0.88;;
33987;SDS011;37428;53.580;-1.666;2023-12-14T04:27:24;4.63;;;0.80;;
33987;SDS011;37428;53.580;-1.666;2023-12-14T04:30:28;2.92;;;1.45;;
33987;SDS011;37428;53.580;-1.666;2023-12-14T04:33:32;2.05;;;0.68;;
33987;SDS011;37428;53.580;-1.666;2023-12-14T04:36:34;4.97;;;0.98;;
33987;SDS011;37428;53.580;-1.666;2023-12-14T04:39:36;2.63;;;0.80;;
33987;SDS011;37428;53.580;-1.666;2023-12-14T04:42:39;3.88;;;0.90;;
33987;SDS011;37428;53.580;-1.666;2023-12-14T04:45:41;6.20;;;1.02;;
33987;SDS011;37428;53.580;-1.666;2023-12-14T04:48:45;5.55;;;1.05;;
33987;SDS011;37428;53.580;-1.666;2023-12-14T04:51:47;2.47;;;1.52;;
33987;SDS011;37428;53.580;-1.666;2023-12-14T04:54:50;4.00;;;0.80;;
33987;SDS011;37428;53.580;-1.666;2023-12-14T04:57:52;6.78;;;1.42;;
33987;SDS011;37428;53.580;-1.666;2023-12-14T05:00:54;1.38;;;0.70;;
33987;SDS011;37428;53.580;-1.666;2023-12-14T05:03:58;2.38;;;1.27;;
33987;SDS011;37428;53.580;-1.666;2023-12-14T05:07:00;2.38;;;0.88;;
33987;SDS011;37428;53.580;-1.666;2023-12-14T05:10:02;6.47;;;1.48;;
33987;SDS011;37428;53.580;-1.666;2023-12-14T05:13:05;2.47;;;0.80;;
33987;SDS011;37428;53.580;-1.666;2023-12-14T05:16:12;5.07;;;0.60;;
33987;SDS011;37428;53.580;-1.666;2023-12-14T05:19:16;2.30;;;0.90;;
33987;SDS011;37428;53.580;-1.666;2023-12-14T05:22:18;1.20;;;0.75;;
33987;SDS011;37428;53.580;-1.666;2023-12-14T05:25:20;3.17;;;0.68;;
33987;SDS011;37428;53.580;-1.666;2023-12-14T05:28:23;3.53;;;0.60;;
33987;SDS011;37428;53.580;-1.666;2023-12-14T05:31:25;4.88;;;0.60;;
33987;SDS011;37428;53.580;-1.666;2023-12-14T05:34:28;1.20;;;0.70;;
33987;SDS011;37428;53.580;-1.666;2023-12-14T05:37:31;1.20;;;0.60;;
33987;SDS011;37428;53.580;-1.666;2023-12-14T05:40:33;1.88;;;0.75;;
33987;SDS011;37428;53.580;-1.666;2023-12-14T05:43:35;1.45;;;0.75;;
33987;SDS011;37428;53.580;-1.666;2023-12-14T05:46:37;4.15;;;0.98;;
33987;SDS011;37428;53.580;-1.666;2023-12-14T05:49:42;3.47;;;1.15;;
33987;SDS011;37428;53.580;-1.666;2023-12-14T05:52:44;2.28;;;0.93;;
33987;SDS011;37428;53.580;-1.666;2023-12-14T05:55:46;1.35;;;1.10;;
33987;SDS011;37428;53.580;-1.666;2023-12-14T05:58:49;3.83;;;0.90;;
33987;SDS011;37428;53.580;-1.666;2023-12-14T06:01:56;1.85;;;1.30;;
33987;SDS011;37428;53.580;-1.666;2023-12-14T06:04:59;7.53;;;1.33;;
33987;SDS011;37428;53.580;-1.666;2023-12-14T06:08:02;1.85;;;1.05;;
33987;SDS011;37428;53.580;-1.666;2023-12-14T06:11:04;6.45;;;1.20;;
33987;SDS011;37428;53.580;-1.666;2023-12-14T06:14:07;3.08;;;0.90;;
33987;SDS011;37428;53.580;-1.666;2023-12-14T06:17:09;4.38;;;0.85;;
33987;SDS011;37428;53.580;-1.666;2023-12-14T06:20:12;3.00;;;1.30;;
33987;SDS011;37428;53.580;-1.666;2023-12-14T06:23:15;1.77;;;0.82;;
33987;SDS011;37428;53.580;-1.666;2023-12-14T06:26:17;2.53;;;0.68;;
33987;SDS011;37428;53.580;-1.666;2023-12-14T06:29:19;2.05;;;0.75;;
33987;SDS011;37428;53.580;-1.666;2023-12-14T06:32:21;1.80;;;1.08;;
33987;SDS011;37428;53.580;-1.666;2023-12-14T06:35:25;1.45;;;0.90;;
33987;SDS011;37428;53.580;-1.666;2023-12-14T06:38:27;2.15;;;1.02;;
33987;SDS011;37428;53.580;-1.666;2023-12-14T06:41:29;1.13;;;0.80;;
33987;SDS011;37428;53.580;-1.666;2023-12-14T06:44:31;3.30;;;1.00;;
33987;SDS011;37428;53.580;-1.666;2023-12-14T06:47:34;1.95;;;1.02;;
33987;SDS011;37428;53.580;-1.666;2023-12-14T06:50:37;3.40;;;1.80;;
33987;SDS011;37428;53.580;-1.666;2023-12-14T06:53:40;5.75;;;3.10;;
33987;SDS011;37428;53.580;-1.666;2023-12-14T06:56:43;4.80;;;2.45;;
33987;SDS011;37428;53.580;-1.666;2023-12-14T06:59:45;5.22;;;1.40;;
33987;SDS011;37428;53.580;-1.666;2023-12-14T07:02:47;2.38;;;1.00;;
33987;SDS011;37428;53.580;-1.666;2023-12-14T07:05:51;3.92;;;1.15;;
33987;SDS011;37428;53.580;-1.666;2023-12-14T07:08:53;2.20;;;1.13;;
33987;SDS011;37428;53.580;-1.666;2023-12-14T07:11:55;2.45;;;1.00;;
33987;SDS011;37428;53.580;-1.666;2023-12-14T07:17:59;1.70;;;0.50;;
33987;SDS011;37428;53.580;-1.666;2023-12-14T07:21:04;1.95;;;0.30;;
33987;SDS011;37428;53.580;-1.666;2023-12-14T07:24:06;0.40;;;0.40;;
33987;SDS011;37428;53.580;-1.666;2023-12-14T07:27:09;2.63;;;1.00;;
33987;SDS011;37428;53.580;-1.666;2023-12-14T07:30:11;0.77;;;0.40;;
33987;SDS011;37428;53.580;-1.666;2023-12-14T07:33:13;0.32;;;0.32;;
33987;SDS011;37428;53.580;-1.666;2023-12-14T07:39:20;1.42;;;0.57;;
33987;SDS011;37428;53.580;-1.666;2023-12-14T07:42:22;1.13;;;0.43;;
33987;SDS011;37428;53.580;-1.666;2023-12-14T07:45:24;1.08;;;0.38;;
33987;SDS011;37428;53.580;-1.666;2023-12-14T07:48:26;1.30;;;0.38;;
33987;SDS011;37428;53.580;-1.666;2023-12-14T07:51:31;2.15;;;0.75;;
33987;SDS011;37428;53.580;-1.666;2023-12-14T07:54:33;1.13;;;0.63;;
33987;SDS011;37428;53.580;-1.666;2023-12-14T07:57:36;1.85;;;0.70;;
33987;SDS011;37428;53.580;-1.666;2023-12-14T08:00:38;0.90;;;0.73;;
33987;SDS011;37428;53.580;-1.666;2023-12-14T08:03:40;0.98;;;0.77;;
33987;SDS011;37428;53.580;-1.666;2023-12-14T08:06:45;2.35;;;0.65;;
33987;SDS011;37428;53.580;-1.666;2023-12-14T08:09:47;1.13;;;0.70;;
33987;SDS011;37428;53.580;-1.666;2023-12-14T08:12:49;2.75;;;0.77;;
33987;SDS011;37428;53.580;-1.666;2023-12-14T08:15:52;1.20;;;0.70;;
33987;SDS011;37428;53.580;-1.666;2023-12-14T08:18:54;0.50;;;0.50;;
33987;SDS011;37428;53.580;-1.666;2023-12-14T08:21:58;1.27;;;0.93;;
33987;SDS011;37428;53.580;-1.666;2023-12-14T08:25:00;1.50;;;0.40;;
33987;SDS011;37428;53.580;-1.666;2023-12-14T08:28:04;0.55;;;0.30;;
33987;SDS011;37428;53.580;-1.666;2023-12-14T08:31:06;0.40;;;0.40;;
33987;SDS011;37428;53.580;-1.666;2023-12-14T08:34:10;0.88;;;0.40;;
33987;SDS011;37428;53.580;-1.666;2023-12-14T08:37:13;1.00;;;0.20;;
33987;SDS011;37428;53.580;-1.666;2023-12-14T08:40:15;1.17;;;0.40;;
33987;SDS011;37428;53.580;-1.666;2023-12-14T08:43:18;0.52;;;0.38;;
33987;SDS011;37428;53.580;-1.666;2023-12-14T08:46:20;0.43;;;0.38;;
33987;SDS011;37428;53.580;-1.666;2023-12-14T08:49:23;0.88;;;0.30;;
33987;SDS011;37428;53.580;-1.666;2023-12-14T08:52:26;0.68;;;0.30;;
33987;SDS011;37428;53.580;-1.666;2023-12-14T08:55:28;1.05;;;0.40;;
33987;SDS011;37428;53.580;-1.666;2023-12-14T08:58:31;1.00;;;0.57;;
33987;SDS011;37428;53.580;-1.666;2023-12-14T09:01:34;0.88;;;0.60;;
33987;SDS011;37428;53.580;-1.666;2023-12-14T09:04:36;0.45;;;0.45;;
33987;SDS011;37428;53.580;-1.666;2023-12-14T09:07:40;1.00;;;0.30;;
33987;SDS011;37428;53.580;-1.666;2023-12-14T09:10:42;1.40;;;0.43;;
33987;SDS011;37428;53.580;-1.666;2023-12-14T09:13:44;0.65;;;0.57;;
33987;SDS011;37428;53.580;-1.666;2023-12-14T09:16:47;0.30;;;0.30;;
33987;SDS011;37428;53.580;-1.666;2023-12-14T09:19:49;0.55;;;0.38;;
33987;SDS011;37428;53.580;-1.666;2023-12-14T09:22:53;1.05;;;0.68;;
33987;SDS011;37428;53.580;-1.666;2023-12-14T09:25:55;2.35;;;1.23;;
33987;SDS011;37428;53.580;-1.666;2023-12-14T09:28:58;1.65;;;1.50;;
33987;SDS011;37428;53.580;-1.666;2023-12-14T09:35:02;2.15;;;1.20;;
33987;SDS011;37428;53.580;-1.666;2023-12-14T09:38:07;37.90;;;15.00;;
33987;SDS011;37428;53.580;-1.666;2023-12-14T09:41:09;13.55;;;5.80;;
33987;SDS011;37428;53.580;-1.666;2023-12-14T09:44:11;9.45;;;6.13;;
33987;SDS011;37428;53.580;-1.666;2023-12-14T09:47:13;6.75;;;4.80;;
33987;SDS011;37428;53.580;-1.666;2023-12-14T09:50:16;7.78;;;5.35;;
33987;SDS011;37428;53.580;-1.666;2023-12-14T09:53:19;7.70;;;4.93;;
33987;SDS011;37428;53.580;-1.666;2023-12-14T09:56:21;8.07;;;6.20;;
33987;SDS011;37428;53.580;-1.666;2023-12-14T09:59:23;7.49;;;5.86;;
33987;SDS011;37428;53.580;-1.666;2023-12-14T10:02:26;3.30;;;3.00;;
33987;SDS011;37428;53.580;-1.666;2023-12-14T10:05:28;2.53;;;2.33;;
33987;SDS011;37428;53.580;-1.666;2023-12-14T10:08:32;4.05;;;3.60;;
33987;SDS011;37428;53.580;-1.666;2023-12-14T10:11:34;2.42;;;2.22;;
33987;SDS011;37428;53.580;-1.666;2023-12-14T10:14:37;2.58;;;2.38;;
33987;SDS011;37428;53.580;-1.666;2023-12-14T10:17:39;2.58;;;2.38;;
33987;SDS011;37428;53.580;-1.666;2023-12-14T10:20:41;2.33;;;2.10;;
33987;SDS011;37428;53.580;-1.666;2023-12-14T10:23:46;2.78;;;1.70;;
33987;SDS011;37428;53.580;-1.666;2023-12-14T10:26:48;1.92;;;1.55;;
33987;SDS011;37428;53.580;-1.666;2023-12-14T10:29:52;1.55;;;1.45;;
33987;SDS011;37428;53.580;-1.666;2023-12-14T10:32:54;1.58;;;1.48;;
33987;SDS011;37428;53.580;-1.666;2023-12-14T10:35:56;1.63;;;1.52;;
33987;SDS011;37428;53.580;-1.666;2023-12-14T10:39:00;1.42;;;1.33;;
33987;SDS011;37428;53.580;-1.666;2023-12-14T10:42:05;2.78;;;2.00;;
33987;SDS011;37428;53.580;-1.666;2023-12-14T10:45:10;2.42;;;2.03;;
33987;SDS011;37428;53.580;-1.666;2023-12-14T10:48:16;6.25;;;3.53;;
33987;SDS011;37428;53.580;-1.666;2023-12-14T10:51:20;6.78;;;3.83;;
33987;SDS011;37428;53.580;-1.666;2023-12-14T10:54:26;10.07;;;3.13;;
33987;SDS011;37428;53.580;-1.666;2023-12-14T10:57:29;9.27;;;3.35;;
33987;SDS011;37428;53.580;-1.666;2023-12-14T11:00:33;6.78;;;3.38;;
33987;SDS011;37428;53.580;-1.666;2023-12-14T11:03:35;10.52;;;4.00;;
33987;SDS011;37428;53.580;-1.666;2023-12-14T11:06:37;8.18;;;3.60;;
33987;SDS011;37428;53.580;-1.666;2023-12-14T11:09:44;11.90;;;4.10;;
33987;SDS011;37428;53.580;-1.666;2023-12-14T11:12:51;7.05;;;3.72;;
33987;SDS011;37428;53.580;-1.666;2023-12-14T11:15:58;9.20;;;2.93;;
33987;SDS011;37428;53.580;-1.666;2023-12-14T11:22:27;8.82;;;2.42;;
33987;SDS011;37428;53.580;-1.666;2023-12-14T11:25:32;6.32;;;2.50;;
33987;SDS011;37428;53.580;-1.666;2023-12-14T11:28:34;5.22;;;1.67;;
33987;SDS011;37428;53.580;-1.666;2023-12-14T11:31:37;4.45;;;1.75;;
33987;SDS011;37428;53.580;-1.666;2023-12-14T11:34:42;4.55;;;2.13;;
33987;SDS011;37428;53.580;-1.666;2023-12-14T11:37:44;6.07;;;1.92;;
33987;SDS011;37428;53.580;-1.666;2023-12-14T11:40:48;2.78;;;1.60;;
33987;SDS011;37428;53.580;-1.666;2023-12-14T11:43:51;6.20;;;2.00;;
33987;SDS011;37428;53.580;-1.666;2023-12-14T11:46:53;8.00;;;2.10;;
33987;SDS011;37428;53.580;-1.666;2023-12-14T11:49:55;6.00;;;1.58;;
33987;SDS011;37428;53.580;-1.666;2023-12-14T11:52:57;6.75;;;2.22;;
33987;SDS011;37428;53.580;-1.666;2023-12-14T11:56:02;6.88;;;2.97;;
33987;SDS011;37428;53.580;-1.666;2023-12-14T11:59:06;9.82;;;2.55;;
33987;SDS011;37428;53.580;-1.666;2023-12-14T12:02:12;6.70;;;2.33;;
33987;SDS011;37428;53.580;-1.666;2023-12-14T12:05:34;7.75;;;2.55;;
33987;SDS011;37428;53.580;-1.666;2023-12-14T12:08:40;7.65;;;2.55;;
33987;SDS011;37428;53.580;-1.666;2023-12-14T12:11:44;7.43;;;2.72;;
33987;SDS011;37428;53.580;-1.666;2023-12-14T12:14:49;11.70;;;4.00;;
33987;SDS011;37428;53.580;-1.666;2023-12-14T12:17:52;10.82;;;3.60;;
33987;SDS011;37428;53.580;-1.666;2023-12-14T12:20:55;10.00;;;3.72;;
33987;SDS011;37428;53.580;-1.666;2023-12-14T12:24:00;15.80;;;4.53;;
33987;SDS011;37428;53.580;-1.666;2023-12-14T12:27:04;12.50;;;5.30;;
33987;SDS011;37428;53.580;-1.666;2023-12-14T12:30:07;19.38;;;7.43;;
33987;SDS011;37428;53.580;-1.666;2023-12-14T12:33:10;16.00;;;6.60;;
33987;SDS011;37428;53.580;-1.666;2023-12-14T12:36:13;10.60;;;6.60;;
33987;SDS011;37428;53.580;-1.666;2023-12-14T12:39:15;16.63;;;7.35;;
33987;SDS011;37428;53.580;-1.666;2023-12-14T12:42:19;20.15;;;7.38;;
33987;SDS011;37428;53.580;-1.666;2023-12-14T12:45:22;23.58;;;9.13;;
33987;SDS011;37428;53.580;-1.666;2023-12-14T12:48:27;27.70;;;8.48;;
33987;SDS011;37428;53.580;-1.666;2023-12-14T12:51:30;22.35;;;8.32;;
33987;SDS011;37428;53.580;-1.666;2023-12-14T12:54:32;13.40;;;6.57;;
33987;SDS011;37428;53.580;-1.666;2023-12-14T12:57:36;23.23;;;7.78;;
33987;SDS011;37428;53.580;-1.666;2023-12-14T13:00:38;28.67;;;8.77;;
33987;SDS011;37428;53.580;-1.666;2023-12-14T13:03:40;23.85;;;7.53;;
33987;SDS011;37428;53.580;-1.666;2023-12-14T13:06:43;17.45;;;7.22;;
33987;SDS011;37428;53.580;-1.666;2023-12-14T13:09:45;19.05;;;7.20;;
33987;SDS011;37428;53.580;-1.666;2023-12-14T13:12:48;27.55;;;7.72;;
33987;SDS011;37428;53.580;-1.666;2023-12-14T13:15:51;17.67;;;6.25;;
33987;SDS011;37428;53.580;-1.666;2023-12-14T13:18:53;22.77;;;6.60;;
33987;SDS011;37428;53.580;-1.666;2023-12-14T13:24:59;29.02;;;6.78;;
33987;SDS011;37428;53.580;-1.666;2023-12-14T13:28:04;23.02;;;5.47;;
33987;SDS011;37428;53.580;-1.666;2023-12-14T13:31:07;27.05;;;6.55;;
33987;SDS011;37428;53.580;-1.666;2023-12-14T13:37:11;27.65;;;6.70;;
33987;SDS011;37428;53.580;-1.666;2023-12-14T13:40:13;23.88;;;5.80;;
33987;SDS011;37428;53.580;-1.666;2023-12-14T13:43:18;27.42;;;6.63;;
33987;SDS011;37428;53.580;-1.666;2023-12-14T13:46:20;32.17;;;6.65;;
33987;SDS011;37428;53.580;-1.666;2023-12-14T13:49:22;31.30;;;10.88;;
33987;SDS011;37428;53.580;-1.666;2023-12-14T13:52:24;32.42;;;10.75;;
33987;SDS011;37428;53.580;-1.666;2023-12-14T13:55:27;36.58;;;11.93;;
33987;SDS011;37428;53.580;-1.666;2023-12-14T14:01:34;35.30;;;10.10;;
33987;SDS011;37428;53.580;-1.666;2023-12-14T14:04:37;33.50;;;10.25;;
33987;SDS011;37428;53.580;-1.666;2023-12-14T14:07:40;28.50;;;9.65;;
33987;SDS011;37428;53.580;-1.666;2023-12-14T14:10:42;36.97;;;8.30;;
33987;SDS011;37428;53.580;-1.666;2023-12-14T14:13:46;27.52;;;6.93;;
33987;SDS011;37428;53.580;-1.666;2023-12-14T14:16:48;28.88;;;8.40;;
33987;SDS011;37428;53.580;-1.666;2023-12-14T14:19:50;34.72;;;7.95;;
33987;SDS011;37428;53.580;-1.666;2023-12-14T14:22:52;23.75;;;6.10;;
33987;SDS011;37428;53.580;-1.666;2023-12-14T14:25:55;32.38;;;6.72;;
33987;SDS011;37428;53.580;-1.666;2023-12-14T14:28:58;35.63;;;7.55;;
33987;SDS011;37428;53.580;-1.666;2023-12-14T14:32:02;33.75;;;6.50;;
33987;SDS011;37428;53.580;-1.666;2023-12-14T14:35:04;29.48;;;5.03;;
33987;SDS011;37428;53.580;-1.666;2023-12-14T14:38:07;25.48;;;5.63;;
33987;SDS011;37428;53.580;-1.666;2023-12-14T14:41:09;34.70;;;6.07;;
33987;SDS011;37428;53.580;-1.666;2023-12-14T14:44:13;27.75;;;5.53;;
33987;SDS011;37428;53.580;-1.666;2023-12-14T14:47:15;47.38;;;7.00;;
33987;SDS011;37428;53.580;-1.666;2023-12-14T14:50:18;42.13;;;6.65;;
33987;SDS011;37428;53.580;-1.666;2023-12-14T14:53:20;30.67;;;7.75;;
33987;SDS011;37428;53.580;-1.666;2023-12-14T14:56:22;31.90;;;6.72;;
33987;SDS011;37428;53.580;-1.666;2023-12-14T14:59:26;35.38;;;6.18;;
33987;SDS011;37428;53.580;-1.666;2023-12-14T15:02:30;29.15;;;6.38;;
33987;SDS011;37428;53.580;-1.666;2023-12-14T15:05:32;26.38;;;5.90;;
33987;SDS011;37428;53.580;-1.666;2023-12-14T15:08:35;31.83;;;7.72;;
33987;SDS011;37428;53.580;-1.666;2023-12-14T15:11:37;23.83;;;6.80;;
33987;SDS011;37428;53.580;-1.666;2023-12-14T15:14:41;33.15;;;6.65;;
33987;SDS011;37428;53.580;-1.666;2023-12-14T15:17:44;34.38;;;5.95;;
33987;SDS011;37428;53.580;-1.666;2023-12-14T15:20:46;34.42;;;6.80;;
33987;SDS011;37428;53.580;-1.666;2023-12-14T15:23:49;31.08;;;6.72;;
33987;SDS011;37428;53.580;-1.666;2023-12-14T15:26:51;29.58;;;5.80;;
33987;SDS011;37428;53.580;-1.666;2023-12-14T15:29:55;30.52;;;6.90;;
33987;SDS011;37428;53.580;-1.666;2023-12-14T15:32:57;27.77;;;6.63;;
33987;SDS011;37428;53.580;-1.666;2023-12-14T15:35:59;23.70;;;5.90;;
33987;SDS011;37428;53.580;-1.666;2023-12-14T15:39:01;26.60;;;5.43;;
33987;SDS011;37428;53.580;-1.666;2023-12-14T15:42:05;27.90;;;6.57;;
33987;SDS011;37428;53.580;-1.666;2023-12-14T15:48:11;34.33;;;8.52;;
33987;SDS011;37428;53.580;-1.666;2023-12-14T15:51:13;25.50;;;5.82;;
33987;SDS011;37428;53.580;-1.666;2023-12-14T15:54:16;23.35;;;5.35;;
33987;SDS011;37428;53.580;-1.666;2023-12-14T15:57:18;24.25;;;5.05;;
33987;SDS011;37428;53.580;-1.666;2023-12-14T16:00:22;25.38;;;6.22;;
33987;SDS011;37428;53.580;-1.666;2023-12-14T16:03:24;22.52;;;5.97;;
33987;SDS011;37428;53.580;-1.666;2023-12-14T16:06:26;27.55;;;5.00;;
33987;SDS011;37428;53.580;-1.666;2023-12-14T16:09:29;22.00;;;5.65;;
33987;SDS011;37428;53.580;-1.666;2023-12-14T16:12:31;31.23;;;5.78;;
33987;SDS011;37428;53.580;-1.666;2023-12-14T16:15:34;25.55;;;4.45;;
33987;SDS011;37428;53.580;-1.666;2023-12-14T16:18:37;27.83;;;5.32;;
33987;SDS011;37428;53.580;-1.666;2023-12-14T16:21:39;21.67;;;5.38;;
33987;SDS011;37428;53.580;-1.666;2023-12-14T16:24:41;26.02;;;5.18;;
33987;SDS011;37428;53.580;-1.666;2023-12-14T16:27:44;20.75;;;4.10;;
33987;SDS011;37428;53.580;-1.666;2023-12-14T16:30:48;24.17;;;5.22;;
33987;SDS011;37428;53.580;-1.666;2023-12-14T16:33:51;24.77;;;4.40;;
33987;SDS011;37428;53.580;-1.666;2023-12-14T16:36:53;22.40;;;4.30;;
33987;SDS011;37428;53.580;-1.666;2023-12-14T16:39:55;22.73;;;4.72;;
33987;SDS011;37428;53.580;-1.666;2023-12-14T16:42:57;20.38;;;4.70;;
33987;SDS011;37428;53.580;-1.666;2023-12-14T16:46:01;22.50;;;3.65;;
33987;SDS011;37428;53.580;-1.666;2023-12-14T16:49:04;25.13;;;5.55;;
33987;SDS011;37428;53.580;-1.666;2023-12-14T16:55:10;29.08;;;4.22;;
33987;SDS011;37428;53.580;-1.666;2023-12-14T16:58:12;21.27;;;3.63;;
33987;SDS011;37428;53.580;-1.666;2023-12-14T17:01:16;19.17;;;3.55;;
33987;SDS011;37428;53.580;-1.666;2023-12-14T17:04:18;19.58;;;4.00;;
33987;SDS011;37428;53.580;-1.666;2023-12-14T17:10:22;21.27;;;4.35;;
33987;SDS011;37428;53.580;-1.666;2023-12-14T17:13:24;16.13;;;4.43;;
33987;SDS011;37428;53.580;-1.666;2023-12-14T17:16:28;14.90;;;3.72;;
33987;SDS011;37428;53.580;-1.666;2023-12-14T17:19:30;19.20;;;4.30;;
33987;SDS011;37428;53.580;-1.666;2023-12-14T17:22:32;27.70;;;7.40;;
33987;SDS011;37428;53.580;-1.666;2023-12-14T17:25:36;19.70;;;6.15;;
33987;SDS011;37428;53.580;-1.666;2023-12-14T17:28:38;19.23;;;4.82;;
33987;SDS011;37428;53.580;-1.666;2023-12-14T17:31:43;17.92;;;3.90;;
33987;SDS011;37428;53.580;-1.666;2023-12-14T17:34:45;27.88;;;4.55;;
33987;SDS011;37428;53.580;-1.666;2023-12-14T17:37:47;21.45;;;3.88;;
33987;SDS011;37428;53.580;-1.666;2023-12-14T17:40:49;13.77;;;3.08;;
33987;SDS011;37428;53.580;-1.666;2023-12-14T17:43:52;20.88;;;3.97;;
33987;SDS011;37428;53.580;-1.666;2023-12-14T17:46:55;19.65;;;3.50;;
33987;SDS011;37428;53.580;-1.666;2023-12-14T17:49:57;14.18;;;4.10;;
33987;SDS011;37428;53.580;-1.666;2023-12-14T17:53:00;18.70;;;3.65;;
33987;SDS011;37428;53.580;-1.666;2023-12-14T17:56:02;21.65;;;5.15;;
33987;SDS011;37428;53.580;-1.666;2023-12-14T17:59:05;29.40;;;5.32;;
33987;SDS011;37428;53.580;-1.666;2023-12-14T18:02:09;16.75;;;3.58;;
33987;SDS011;37428;53.580;-1.666;2023-12-14T18:05:11;22.23;;;4.40;;
33987;SDS011;37428;53.580;-1.666;2023-12-14T18:08:14;15.90;;;5.65;;
33987;SDS011;37428;53.580;-1.666;2023-12-14T18:11:16;27.83;;;7.82;;
33987;SDS011;37428;53.580;-1.666;2023-12-14T18:17:22;18.40;;;3.85;;
33987;SDS011;37428;53.580;-1.666;2023-12-14T18:20:24;18.20;;;4.50;;
33987;SDS011;37428;53.580;-1.666;2023-12-14T18:23:26;24.08;;;4.63;;
33987;SDS011;37428;53.580;-1.666;2023-12-14T18:26:29;22.27;;;5.60;;
33987;SDS011;37428;53.580;-1.666;2023-12-14T18:29:31;18.55;;;4.65;;
33987;SDS011;37428;53.580;-1.666;2023-12-14T18:32:35;20.23;;;5.53;;
33987;SDS011;37428;53.580;-1.666;2023-12-14T18:35:37;19.55;;;4.47;;
33987;SDS011;37428;53.580;-1.666;2023-12-14T18:38:39;17.73;;;4.10;;
33987;SDS011;37428;53.580;-1.666;2023-12-14T18:41:42;19.50;;;4.28;;
33987;SDS011;37428;53.580;-1.666;2023-12-14T18:44:44;32.40;;;4.65;;
33987;SDS011;37428;53.580;-1.666;2023-12-14T18:47:48;18.38;;;4.90;;
33987;SDS011;37428;53.580;-1.666;2023-12-14T18:50:50;24.75;;;4.35;;
33987;SDS011;37428;53.580;-1.666;2023-12-14T18:53:52;22.92;;;4.05;;
33987;SDS011;37428;53.580;-1.666;2023-12-14T18:56:54;18.63;;;3.97;;
33987;SDS011;37428;53.580;-1.666;2023-12-14T18:59:57;22.75;;;6.22;;